Terminal Aerodrome Forecast
Issued by NWS

Home | Current Version | Previous Version | Text Only | Print | Product List | Glossary On
Versions: 1 2 3 4 5 6 7 8 9 10 11 12 13 14 15 16 17
000
FTUS46 KSEW 282346
TAFPAE
TAF
KPAE 282346Z 2900/2924 36007KT P6SM SCT250
     FM290300 02004KT P6SM SCT250
     FM291400 02004KT P6SM FEW007 SCT250
     FM291800 34007KT P6SM SCT250=

USA.gov is the U.S. government's official web portal to all federal, state and local government web resources and services.